21:44
Airports
History
Links
Donate
Help keep this website running!
PayPal
Bitcoin
This page is community maintained. The information is intended for PC simulator navigation or reference.
Always use approved charts for navigation.
ESGR
SKOVDE
SKOVDE (ESGR)
Västra Götaland County, Sweden (541)
(U)
Lat/Lng:58° 27' 22.97" N / 13° 58' 21.48" E
58.45638 / 13.972632
Elevation:324'ft / 99mMSL
ID / ICAO:ESGR
Runways:1
Longest:(01-19) 1,738.1m / 5,702ft Asphalt
Distance To
Airport ID:
Airport Radio Frequencies
Tower: 122.32
Nearby VORs <50NM
Nearby NDBs
METARUpdated 08-16-17 21:20 GMT
Altimeter: 30.09
Visibility: 6.2 statute miles
Wind: 5 knots (230°)
Temp: 13°c 55°f
Humidity: 76.7%

METAR: ESGR 162120Z AUTO 23005KT 9999 NCD 13/09 Q1019

(Powered by phpweather)
Runway 01 / 19
Dimensions:1738.1 x 29.9m 5702' x 98'ft
Surface:Asphalt
Edge Lights:High intensity
Runway 01 [A]Runway 19 [B]
Heading:015°TH 195°TH
Lat:
Lng:
58° 26' 55.96"N
13° 58' 6.98"E
58° 27' 49.97"N
13° 58' 35.97"E
ALS:Calvert
User Notes and Comments
Google Map
Nearby Airports
4 Gotene Brannebrona 15.6 NM
ESGN WNW 302°
4 Tidaholm Bammelshed 18.3 NM
ESGD S 177°
(U) KARLSBORG 19.7 NM
ESIA ENE 78°
(C) FALKOPING 24.2 NM
ESGK SW 215°
4 Falkoping Alleberg 26.0 NM
ESGC SSW 211°
(C) LIDKOPING 28.9 NM
ESGL W 271°
4 Visingso 29.1 NM
ESSI SSE 148°
VFR Chart
Flight Planning at SkyVector.com